Pagrindinis puslapis
METAR-TAF:

METAR-TAF

Oro uostai :

Bankokas-Suvarnabhumi, Tailandas

platuma: 13-40-52N, ilguma: 100-44-50E, Aukštis: 2 m

Dabartinis oras

Ataskaita buvo paskelbta 34 minutes, ne 19:00 UTC
Vėjas 6 kt iš Šiaurės Rytų
Temperatūra 29°C
Drėgmė 66%
Slėgis 1011 hPa
Matomumas 10 km arba daugiau
Mažai debesys ne aukštis 3000 ft

METAR: VTBS 251900Z 05006KT 9999 FEW030 29/22 Q1011 NOSIG

Laikas: 02:34 (19:34 UTC)

Prognozė

Ataskaita buvo paskelbta 2 valandos ir 34 minutes, ne 17:00 UTC
Prognozė galioja nuo 25 metu 18 UTC su 26 metu 24 UTC
Vėjas 8 kt iš Rytų/Šiaurės Rytų
Matomumas 10 km arba daugiau
Mažai debesys ne aukštis 3000 ft
Tapsmas
nuo 25 metu 21 UTC su 25 metu 23 UTC
Vėjas 5 kt iš Šiaurės
Tapsmas
nuo 26 metu 01 UTC su 26 metu 03 UTC
Vėjas 8 kt iš Rytų/Šiaurės Rytų

TAF: VTBS 251700Z 2518/2624 06008KT 9999 FEW030 BECMG 2521/2523 35005KT BECMG 2601/2603 07008KT

Orai ataskaitas ir orų prognozės (METAR, TAF).

turimą stotys yra geltonos ir raudonos taškus žemėlapyje.

Perkelti pele per norėdami pamatyti stoties vardą.

Tada spustelėkite, norėdami matyti oro stebėjimo ir prognozės.

Norėdami pakeisti žemėlapį: spustelėkite ant žalios mygtukų su juodo kryžiaus žemyn,; žalią mygtuką su brūkšneliu, jei norite nutolinti; arba žalių rodyklių gretimoms žemėlapius.


METAR-TAF: